Date,TemperatureHighF,TemperatureAvgF,TemperatureLowF,DewpointHighF,DewpointAvgF,DewpointLowF,HumidityHigh,HumidityAvg,HumidityLow,PressureMaxIn,PressureMinIn,WindSpeedMaxMPH,WindSpeedAvgMPH,GustSpeedMaxMPH,PrecipitationSumIn
2013-4-1,40,34,30,26,18,14,63,54,42,30.31,30.01,24,9,26,0.00
2013-4-2,44,34,26,18,12,4,60,43,24,30.45,30.31,22,6,23,0.00
2013-4-3,42,33,23,25,16,10,71,53,30,30.60,30.44,22,5,22,0.00
2013-4-4,59,44,28,21,18,15,70,39,21,30.48,30.13,16,5,17,0.00
2013-4-5,50,40,34,36,26,16,92,60,35,30.37,30.13,28,9,28,0.00
2013-4-6,70,54,34,40,31,23,73,45,27,30.32,29.80,47,14,47,0.00
2013-4-7,65,50,40,47,39,34,82,67,43,30.12,29.81,34,8,38,0.02
2013-4-8,70,54,44,55,45,34,93,71,50,30.14,29.84,43,10,43,0.28
2013-4-9,79,54,41,59,47,41,99,79,44,30.15,29.96,30,7,31,0.00
2013-4-10,50,42,40,49,42,39,100,98,89,30.11,29.93,24,8,27,0.52
2013-4-11,54,47,41,53,46,41,99,97,94,30.00,29.71,27,7,27,1.26
2013-4-12,45,40,38,42,35,30,96,83,71,30.02,29.74,26,8,28,0.05
2013-4-13,46,40,35,35,30,25,92,70,50,30.14,30.01,22,7,24,0.02
2013-4-14,69,53,40,49,40,30,79,62,47,30.16,29.88,29,8,29,0.00
2013-4-15,65,58,46,56,50,44,97,77,52,30.12,29.89,32,12,34,0.99
2013-4-16,49,46,43,45,38,33,97,74,59,30.41,30.10,16,6,17,0.43
2013-4-17,56,48,43,51,43,33,97,81,68,30.41,29.96,31,8,31,0.54
2013-4-18,71,59,45,65,56,40,96,91,81,30.03,29.62,33,11,36,0.91
2013-4-19,47,38,34,39,30,26,84,73,65,30.07,29.68,35,11,37,0.01
2013-4-20,43,37,32,28,20,12,78,54,34,30.59,30.05,23,8,23,0.00
2013-4-21,53,42,32,29,22,17,64,47,28,30.68,30.50,20,7,22,0.00
2013-4-22,66,54,40,36,31,25,75,47,24,30.51,30.23,18,7,20,0.00
2013-4-23,66,54,39,52,43,35,96,69,47,30.24,30.03,27,9,27,0.40
2013-4-24,50,42,37,35,30,24,92,67,40,30.31,30.08,25,8,25,0.02
2013-4-25,51,45,40,36,30,24,71,58,38,30.50,30.25,23,8,25,0.00
2013-4-26,66,53,40,43,36,27,68,53,39,30.53,30.43,26,9,27,0.00
2013-4-27,69,58,43,50,41,29,91,58,27,30.47,30.16,20,5,20,0.00
2013-4-28,61,56,49,54,51,47,93,86,73,30.18,29.99,16,4,17,0.03
2013-4-29,72,62,50,54,52,47,94,70,48,30.10,29.98,25,8,25,0.00
2013-4-30,84,71,59,59,54,50,76,58,33,30.14,30.00,27,12,30,0.00